Sao Luis de Montes Belos, Brazil
Current Conditions -  °F | °C
As of 10:00 PM on Saturday 20 Dec 2014 (Local Time) from SBGO Reporting Station
Light Rain Light Rain  
Wind Chill: 73°   Ceiling: 8000
Heat Index: 73°   Visibility: 6mi
Dew Point: 66°   Wind: 5mph
Humidity: 78%   Direction: 10°N
Pressure: NA   Gusts: NA
Location:  16.53°S, 50.37°W
Report Text: SBGO 210000Z 01004KT 9999 -RA SCT023 FEW045TCU OVC080 23/19 Q1015
Loading
Personal Weather Stations






























Interactive Weather Map New forecast layout! Learn more

10-Day Weather Forecast

Advertisements
Track Severe Weather on mobile